Time;durP1;ratioP1;P1;durP2;ratioP2;P2;SDS_P1;SDS_P2;PMS_P1;PMS_P2;Temp;Humidity;BMP_temperature;BMP_pressure;BME280_temperature;BME280_humidity;BME280_pressure;Samples;Min_cycle;Max_cycle;Signal;HPM_P1;HPM_P2
2021/12/12 00:00:59;;;;;;;19.73;4.32;;;;;;;10.35;80.26;95361.28;5113755;28;20100;-62
2021/12/12 00:03:37;;;;;;;19.08;4.15;;;;;;;10.34;80.53;95332.63;5113715;28;20466;-63
2021/12/12 00:06:08;;;;;;;24.50;4.55;;;;;;;10.31;81.57;95341.50;5113624;28;20042;-62
2021/12/12 00:08:34;;;;;;;17.02;4.80;;;;;;;10.32;80.06;95327.47;5113608;28;20058;-61
2021/12/12 00:11:07;;;;;;;28.67;5.28;;;;;;;10.33;79.62;95336.19;5113742;28;20020;-65
2021/12/12 00:14:05;;;;;;;26.33;4.95;;;;;;;10.30;80.84;95342.41;5113690;28;20035;-65
2021/12/12 00:16:31;;;;;;;17.27;4.65;;;;;;;10.28;79.83;95346.03;5113657;28;20488;-61
2021/12/12 00:18:57;;;;;;;22.75;4.47;;;;;;;10.31;80.12;95310.13;5113472;28;20055;-64
2021/12/12 00:21:26;;;;;;;15.10;4.55;;;;;;;10.25;81.53;95313.09;5113205;28;20116;-62
2021/12/12 00:23:52;;;;;;;21.50;4.72;;;;;;;10.23;81.17;95305.31;5113348;28;20479;-64
2021/12/12 00:26:18;;;;;;;23.02;4.90;;;;;;;10.17;81.74;95313.50;5113535;28;20019;-64
2021/12/12 00:28:44;;;;;;;17.88;5.22;;;;;;;10.15;81.68;95306.69;5113440;28;20028;-66
2021/12/12 00:31:15;;;;;;;14.48;4.35;;;;;;;9.99;82.56;95308.38;5112215;28;20019;-61
2021/12/12 00:33:43;;;;;;;25.52;6.18;;;;;;;9.92;83.92;95295.75;5117742;27;20024;-59
2021/12/12 00:36:11;;;;;;;18.48;6.30;;;;;;;9.78;84.56;95289.50;5117599;28;20409;-59
2021/12/12 00:38:37;;;;;;;13.95;4.32;;;;;;;9.73;85.50;95355.03;5116278;28;20027;-59
2021/12/12 00:41:08;;;;;;;17.27;5.22;;;;;;;9.64;86.38;95328.59;5117492;28;20028;-63
2021/12/12 00:43:45;;;;;;;19.50;5.75;;;;;;;9.64;87.27;95331.19;5117473;28;20023;-66
2021/12/12 00:46:13;;;;;;;19.42;6.88;;;;;;;9.59;87.92;95319.25;5117429;28;20020;-62
2021/12/12 00:48:41;;;;;;;20.27;6.75;;;;;;;9.56;88.73;95308.97;5117323;28;20027;-66
2021/12/12 00:51:11;;;;;;;19.42;6.20;;;;;;;9.53;89.57;95342.19;5117235;28;20023;-63
2021/12/12 00:53:38;;;;;;;17.55;6.68;;;;;;;9.50;89.74;95365.84;5117302;28;20115;-63
2021/12/12 00:56:05;;;;;;;12.27;5.07;;;;;;;9.52;89.75;95344.00;5117225;28;20020;-66
2021/12/12 00:58:30;;;;;;;19.75;5.85;;;;;;;9.55;90.12;95327.31;5115962;28;20026;-65
2021/12/12 01:01:08;;;;;;;22.58;6.28;;;;;;;9.53;90.54;95360.47;5117131;28;20381;-60
2021/12/12 01:03:39;;;;;;;11.93;4.80;;;;;;;9.50;90.89;95356.28;5117167;28;20377;-64
2021/12/12 01:06:08;;;;;;;17.52;6.07;;;;;;;9.48;91.30;95368.53;5115929;28;20102;-63
2021/12/12 01:08:35;;;;;;;17.75;7.13;;;;;;;9.54;90.62;95372.63;5117025;28;20027;-64
2021/12/12 01:11:08;;;;;;;14.63;4.55;;;;;;;9.55;90.68;95379.53;5117037;28;20102;-61
2021/12/12 01:13:35;;;;;;;18.83;5.75;;;;;;;9.46;91.73;95386.91;5117017;28;20024;-62
2021/12/12 01:16:17;;;;;;;13.10;6.15;;;;;;;9.52;91.45;95357.03;5116761;28;20023;-63
2021/12/12 01:18:51;;;;;;;7.10;4.78;;;;;;;9.55;90.17;95358.63;5116778;28;20042;-63
2021/12/12 01:21:21;;;;;;;5.13;2.70;;;;;;;9.55;88.80;95356.88;5116576;28;20039;-63
2021/12/12 01:23:52;;;;;;;12.85;3.00;;;;;;;9.56;88.65;95353.34;5116833;27;20111;-61
2021/12/12 01:26:18;;;;;;;14.02;3.63;;;;;;;9.58;88.82;95345.44;5116674;27;20031;-62
2021/12/12 01:28:46;;;;;;;9.88;3.50;;;;;;;9.61;88.42;95382.63;5116552;28;20085;-64
2021/12/12 01:31:17;;;;;;;9.95;3.95;;;;;;;9.63;88.99;95393.00;5116525;28;20068;-61
2021/12/12 01:33:42;;;;;;;;;;;;;;;9.52;89.65;95392.72;5116870;28;20480;-63
2021/12/12 01:36:24;;;;;;;6.85;3.38;;;;;;;9.43;89.96;95402.75;5116507;28;19912;-61
2021/12/12 01:39:00;;;;;;;9.57;4.38;;;;;;;9.44;90.26;95387.91;5116351;28;20493;-64
2021/12/12 01:41:37;;;;;;;9.18;3.50;;;;;;;9.46;89.83;95414.78;5116216;28;20028;-63
2021/12/12 01:44:16;;;;;;;5.75;3.20;;;;;;;9.46;89.43;95433.88;5115599;27;20036;-65
2021/12/12 01:46:57;;;;;;;10.82;3.38;;;;;;;9.44;89.78;95437.50;5116354;28;20020;-61
2021/12/12 01:49:25;;;;;;;10.30;3.13;;;;;;;9.44;89.44;95432.28;5116308;28;20112;-64
2021/12/12 01:51:52;;;;;;;8.18;3.13;;;;;;;9.44;89.46;95425.31;5116049;28;20031;-65
2021/12/12 01:54:26;;;;;;;7.13;2.72;;;;;;;9.39;89.25;95431.69;5115974;28;20431;-61
2021/12/12 01:56:59;;;;;;;2.97;1.98;;;;;;;9.34;87.75;95431.91;5116072;28;20039;-61
2021/12/12 01:59:31;;;;;;;3.15;1.88;;;;;;;9.29;88.26;95429.53;5115920;28;20041;-62
2021/12/12 02:02:04;;;;;;;5.80;2.58;;;;;;;9.33;87.87;95423.22;5115968;28;20468;-63
2021/12/12 02:04:34;;;;;;;5.18;1.98;;;;;;;9.31;88.84;95411.19;5115877;28;20066;-64
2021/12/12 02:07:00;;;;;;;;;;;;;;;9.34;87.21;95401.44;5116276;28;20027;-66
2021/12/12 02:09:26;;;;;;;7.30;1.83;;;;;;;9.33;87.60;95397.13;5115812;28;19963;-66
2021/12/12 02:11:56;;;;;;;6.95;1.73;;;;;;;9.37;86.56;95376.09;5115820;27;20024;-62
2021/12/12 02:14:26;;;;;;;3.65;1.58;;;;;;;9.36;86.85;95393.53;5115703;28;20381;-64
2021/12/12 02:16:57;;;;;;;1.92;1.40;;;;;;;9.29;87.17;95400.84;5115600;28;20027;-63
2021/12/12 02:19:33;;;;;;;3.72;1.50;;;;;;;9.31;86.11;95392.94;5115735;28;20027;-62
2021/12/12 02:22:21;;;;;;;5.05;1.35;;;;;;;9.34;85.75;95403.22;5115314;28;20039;-62
2021/12/12 02:35:48;;;;;;;5.40;1.55;;;;;;;9.31;85.06;95392.94;5115717;28;20400;-66
2021/12/12 02:38:21;;;;;;;2.17;0.90;;;;;;;9.26;84.73;95382.72;5115286;28;20030;-63
2021/12/12 02:41:02;;;;;;;2.42;0.95;;;;;;;9.28;84.54;95406.97;5115279;28;20039;-65
2021/12/12 02:43:35;;;;;;;3.67;1.10;;;;;;;9.19;84.74;95404.84;5115128;28;20035;-61
2021/12/12 02:46:02;;;;;;;2.10;0.90;;;;;;;9.16;85.07;95392.78;5115044;28;20039;-64
2021/12/12 02:48:32;;;;;;;3.75;1.00;;;;;;;9.25;85.11;95404.53;5114943;28;20462;-65
2021/12/12 02:51:06;;;;;;;3.47;1.35;;;;;;;9.29;84.83;95426.94;5114935;28;20023;-62
2021/12/12 02:53:54;;;;;;;2.63;0.80;;;;;;;9.22;85.04;95444.66;5114644;28;20109;-64
2021/12/12 02:56:33;;;;;;;4.07;0.98;;;;;;;9.15;85.59;95432.84;5114693;28;20079;-63
2021/12/12 02:59:03;;;;;;;0.80;0.70;;;;;;;9.18;85.19;95427.47;5114913;28;20068;-64
2021/12/12 03:01:44;;;;;;;1.42;0.80;;;;;;;9.19;85.43;95428.31;5114928;28;20064;-59
2021/12/12 03:04:10;;;;;;;4.32;1.25;;;;;;;9.13;85.62;95426.00;5114759;28;20035;-61
2021/12/12 03:06:39;;;;;;;1.40;1.08;;;;;;;9.09;86.11;95417.47;5113437;28;20131;-63
2021/12/12 03:09:27;;;;;;;4.03;1.13;;;;;;;9.05;86.90;95437.66;5114564;27;20028;-64
2021/12/12 03:11:57;;;;;;;3.42;1.00;;;;;;;9.00;86.50;95452.69;5114657;28;20096;-62
2021/12/12 03:14:24;;;;;;;3.72;1.23;;;;;;;8.98;87.47;95451.94;5114558;28;20027;-63
2021/12/12 03:16:50;;;;;;;2.75;1.00;;;;;;;8.97;87.02;95458.06;5114525;28;20020;-64
2021/12/12 03:19:19;;;;;;;1.92;1.45;;;;;;;8.96;86.63;95452.00;5114494;28;20071;-65
2021/12/12 03:21:46;;;;;;;7.25;2.03;;;;;;;9.00;86.91;95457.91;5114123;28;20044;-63
2021/12/12 03:24:19;;;;;;;4.82;1.95;;;;;;;9.06;86.79;95457.63;5114279;28;20043;-64
2021/12/12 03:26:47;;;;;;;5.18;2.33;;;;;;;9.05;86.14;95437.66;5114361;28;20055;-64
2021/12/12 03:29:13;;;;;;;7.03;2.08;;;;;;;9.02;85.98;95431.75;5114301;27;20023;-64
2021/12/12 03:31:44;;;;;;;2.45;1.95;;;;;;;9.01;86.66;95430.06;5114197;28;20027;-61
2021/12/12 03:34:14;;;;;;;6.13;2.30;;;;;;;9.03;86.41;95443.91;5114249;28;20466;-62
2021/12/12 03:36:41;;;;;;;3.45;2.60;;;;;;;9.03;86.53;95431.69;5114152;28;20051;-63
2021/12/12 03:39:21;;;;;;;4.03;2.00;;;;;;;9.04;86.28;95451.66;5114226;28;20027;-65
2021/12/12 03:41:47;;;;;;;2.47;1.37;;;;;;;9.02;85.35;95444.78;5114097;28;20111;-61
2021/12/12 03:44:17;;;;;;;4.40;1.60;;;;;;;9.07;84.51;95443.66;5113816;28;20031;-60
2021/12/12 03:46:45;;;;;;;2.60;1.30;;;;;;;8.96;84.64;95436.38;5113997;28;20528;-61
2021/12/12 03:49:10;;;;;;;4.75;1.80;;;;;;;8.93;84.94;95428.69;5113872;28;20427;-60
2021/12/12 03:51:38;;;;;;;2.58;1.35;;;;;;;8.94;84.81;95446.03;5113840;28;20020;-66
2021/12/12 03:54:04;;;;;;;2.63;1.63;;;;;;;8.99;84.58;95451.00;5113912;27;20038;-61
2021/12/12 03:56:30;;;;;;;4.00;1.55;;;;;;;9.01;83.95;95451.78;5113754;28;20051;-67
2021/12/12 03:58:57;;;;;;;6.53;1.52;;;;;;;9.04;84.03;95456.88;5113737;28;20507;-60
2021/12/12 04:01:36;;;;;;;2.17;1.48;;;;;;;9.01;83.62;95454.41;5113819;28;20043;-65
2021/12/12 04:04:30;;;;;;;4.35;1.75;;;;;;;8.92;83.65;95454.84;5113674;28;20031;-66
2021/12/12 04:06:58;;;;;;;4.13;1.38;;;;;;;8.88;84.11;95459.34;5105804;28;20088;-64
2021/12/12 04:09:25;;;;;;;7.13;2.00;;;;;;;8.85;84.46;95464.72;5113717;28;20027;-65
2021/12/12 04:11:55;;;;;;;10.30;2.00;;;;;;;8.83;84.04;95474.38;5113607;28;20063;-62
2021/12/12 04:14:23;;;;;;;7.93;1.90;;;;;;;8.79;83.97;95491.94;5113641;28;20023;-63
2021/12/12 04:16:54;;;;;;;3.97;1.77;;;;;;;8.74;84.42;95500.91;5113551;28;20063;-63
2021/12/12 04:19:19;;;;;;;6.85;2.20;;;;;;;8.74;84.53;95506.13;5113627;28;20457;-60
2021/12/12 04:21:46;;;;;;;9.23;2.20;;;;;;;8.65;85.17;95510.00;5113217;28;20052;-62
2021/12/12 04:24:18;;;;;;;5.32;2.17;;;;;;;8.66;84.78;95514.28;5113340;28;20035;-63
2021/12/12 04:26:44;;;;;;;5.43;1.80;;;;;;;8.59;84.07;95522.41;5113589;28;20271;-64
2021/12/12 04:29:23;;;;;;;5.07;1.73;;;;;;;8.53;84.16;95520.06;5113491;28;20020;-64
2021/12/12 04:31:52;;;;;;;3.25;1.67;;;;;;;8.53;84.70;95529.63;5113375;28;20076;-67
2021/12/12 04:34:24;;;;;;;6.45;1.83;;;;;;;8.51;84.50;95545.34;5113328;28;20054;-67
2021/12/12 04:36:52;;;;;;;4.80;1.80;;;;;;;8.52;84.49;95541.81;5113399;28;20031;-62
2021/12/12 04:39:25;;;;;;;2.40;1.45;;;;;;;8.51;83.90;95542.72;5113449;28;21122;-62
2021/12/12 04:41:57;;;;;;;3.65;1.42;;;;;;;8.49;83.60;95536.72;5113418;28;20028;-62
2021/12/12 04:44:29;;;;;;;3.85;1.70;;;;;;;8.53;82.83;95548.72;5113319;28;20027;-67
2021/12/12 04:50:21;;;;;;;6.10;1.80;;;;;;;8.58;83.11;95558.97;5088837;28;20078;-63
2021/12/12 04:53:15;;;;;;;1.97;1.73;;;;;;;8.49;83.03;95560.19;5113490;28;20024;-65
2021/12/12 04:55:54;;;;;;;3.55;1.58;;;;;;;8.45;82.72;95556.91;5113202;28;20036;-65
2021/12/12 04:58:23;;;;;;;1.98;1.55;;;;;;;8.50;82.18;95555.84;5113173;28;20031;-65
2021/12/12 05:00:54;;;;;;;2.90;1.50;;;;;;;8.51;81.73;95560.13;5113209;28;20023;-60
2021/12/12 05:03:36;;;;;;;5.80;1.65;;;;;;;8.52;81.69;95567.03;5113135;28;20031;-66
2021/12/12 05:06:13;;;;;;;3.42;1.30;;;;;;;8.45;81.94;95574.28;5113070;28;20031;-65
2021/12/12 05:09:11;;;;;;;3.67;1.80;;;;;;;8.24;81.79;95573.50;5113080;28;20381;-65
2021/12/12 05:11:51;;;;;;;5.72;1.50;;;;;;;8.16;81.98;95586.84;5107074;28;20447;-66
2021/12/12 05:14:23;;;;;;;;;;;;;;;8.24;81.33;95596.94;5113439;28;20032;-67
2021/12/12 05:17:11;;;;;;;2.83;1.00;;;;;;;8.24;81.14;95591.75;5113125;28;19934;-67
2021/12/12 05:19:41;;;;;;;2.15;0.90;;;;;;;8.25;80.62;95593.41;5116824;28;20491;-60
2021/12/12 05:22:14;;;;;;;2.08;0.90;;;;;;;8.29;80.11;95606.25;5116586;28;20043;-59
2021/12/12 05:24:44;;;;;;;2.42;0.88;;;;;;;8.36;79.55;95613.81;5116677;28;20046;-67
2021/12/12 05:27:14;;;;;;;2.00;0.80;;;;;;;8.38;79.54;95612.81;5116690;27;20023;-63
2021/12/12 05:29:47;;;;;;;2.15;1.17;;;;;;;8.36;79.44;95612.03;5116700;28;20526;-64
2021/12/12 05:32:14;;;;;;;2.00;0.68;;;;;;;8.39;79.19;95609.28;5116588;28;20115;-63
2021/12/12 05:34:44;;;;;;;2.67;1.20;;;;;;;8.36;79.46;95606.81;5116412;28;20016;-61
2021/12/12 05:37:13;;;;;;;6.28;1.27;;;;;;;8.33;79.66;95610.41;5116491;28;20027;-64
2021/12/12 05:39:39;;;;;;;4.43;1.30;;;;;;;8.23;80.00;95603.91;5116310;28;20027;-64
2021/12/12 05:42:06;;;;;;;3.25;1.25;;;;;;;8.15;79.98;95608.59;5116435;28;20419;-62
2021/12/12 05:44:32;;;;;;;2.72;1.10;;;;;;;8.06;80.19;95608.09;5116290;27;20030;-62
2021/12/12 05:47:03;;;;;;;4.65;3.40;;;;;;;7.94;79.54;95614.66;5116287;28;20051;-62
2021/12/12 05:49:29;;;;;;;11.00;6.68;;;;;;;7.81;80.23;95609.13;5116252;28;20058;-61
2021/12/12 05:51:55;;;;;;;4.28;1.42;;;;;;;7.61;79.24;95604.75;5116192;28;20034;-64
2021/12/12 05:54:24;;;;;;;5.30;1.50;;;;;;;7.48;80.14;95606.16;5116016;28;20051;-62
2021/12/12 05:56:50;;;;;;;2.60;1.08;;;;;;;7.31;81.24;95631.09;5116060;28;20072;-61
2021/12/12 05:59:17;;;;;;;6.82;1.65;;;;;;;7.36;81.87;95652.56;5115975;27;20020;-64
2021/12/12 06:01:43;;;;;;;3.85;1.45;;;;;;;7.33;82.47;95671.78;5115941;28;20034;-64
2021/12/12 06:04:09;;;;;;;3.30;1.23;;;;;;;7.41;82.19;95670.63;5115829;27;20104;-64
2021/12/12 06:06:39;;;;;;;1.38;1.15;;;;;;;7.36;82.34;95667.31;5116043;28;20526;-64
2021/12/12 06:09:09;;;;;;;3.25;1.60;;;;;;;7.42;81.79;95673.16;5115904;28;20093;-66
2021/12/12 06:11:38;;;;;;;4.13;1.83;;;;;;;7.37;81.07;95671.66;5115811;28;20019;-64
2021/12/12 06:14:07;;;;;;;6.18;1.77;;;;;;;7.37;81.45;95671.66;5115855;28;20015;-64
2021/12/12 06:16:34;;;;;;;2.88;1.50;;;;;;;7.33;80.91;95665.69;5115728;28;20517;-62
2021/12/12 06:19:13;;;;;;;2.88;1.20;;;;;;;7.26;82.17;95675.53;5115660;28;20016;-61
2021/12/12 06:21:39;;;;;;;5.72;1.77;;;;;;;7.33;82.40;95682.19;5115408;28;20442;-65
2021/12/12 06:24:06;;;;;;;1.17;0.95;;;;;;;7.34;81.73;95690.81;5115458;28;20032;-64
2021/12/12 06:26:33;;;;;;;1.80;1.33;;;;;;;7.18;81.74;95693.16;5115658;28;20019;-63
2021/12/12 06:28:59;;;;;;;5.57;1.20;;;;;;;7.17;81.41;95697.50;5115349;28;20028;-61
2021/12/12 06:31:25;;;;;;;3.55;1.05;;;;;;;7.16;82.45;95701.00;5115394;28;20035;-64
2021/12/12 06:33:50;;;;;;;3.60;1.20;;;;;;;7.13;82.54;95703.72;5115406;28;20103;-62
2021/12/12 06:36:17;;;;;;;2.33;1.17;;;;;;;7.11;82.81;95713.38;5115230;28;20062;-62
2021/12/12 06:38:46;;;;;;;2.33;0.95;;;;;;;7.12;83.65;95717.66;5115307;28;20038;-61
2021/12/12 06:41:14;;;;;;;5.57;1.10;;;;;;;7.13;83.81;95721.09;5115245;28;20016;-64
2021/12/12 06:43:41;;;;;;;5.18;1.77;;;;;;;7.15;83.75;95714.94;5115222;28;20256;-62
2021/12/12 06:46:09;;;;;;;4.28;1.00;;;;;;;7.18;83.36;95725.22;5115176;28;20439;-60
2021/12/12 06:48:38;;;;;;;2.30;1.45;;;;;;;7.22;83.99;95723.34;5115061;28;20077;-63
2021/12/12 06:51:04;;;;;;;11.85;4.88;;;;;;;7.28;83.99;95730.06;5115044;28;20023;-63
2021/12/12 06:53:34;;;;;;;4.57;3.30;;;;;;;7.32;83.82;95737.69;5114982;28;20027;-61
2021/12/12 06:56:02;;;;;;;2.53;1.00;;;;;;;7.30;83.78;95738.66;5114922;28;20540;-60
2021/12/12 06:58:29;;;;;;;6.15;2.25;;;;;;;7.29;84.02;95721.38;5114784;28;20028;-65
2021/12/12 07:01:06;;;;;;;9.98;5.53;;;;;;;7.30;84.54;95723.06;5114773;28;20057;-64
2021/12/12 07:03:32;;;;;;;4.43;2.30;;;;;;;7.39;84.61;95717.50;5114830;28;21282;-64
2021/12/12 07:05:58;;;;;;;4.55;2.65;;;;;;;7.43;84.60;95723.44;5114580;28;20024;-60
2021/12/12 07:08:24;;;;;;;3.92;1.42;;;;;;;7.55;83.93;95727.31;5114702;28;20019;-63
2021/12/12 07:10:50;;;;;;;4.57;1.63;;;;;;;7.62;83.94;95733.13;5114652;28;20032;-64
2021/12/12 07:13:16;;;;;;;6.22;1.15;;;;;;;7.71;84.08;95741.41;5114486;28;20509;-67
2021/12/12 07:15:46;;;;;;;7.53;1.83;;;;;;;7.75;84.30;95754.31;5114627;28;20076;-63
2021/12/12 07:18:15;;;;;;;3.60;0.95;;;;;;;7.80;83.96;95755.84;5114507;28;20031;-64
2021/12/12 07:20:43;;;;;;;2.05;0.90;;;;;;;7.96;83.30;95753.50;5114311;28;20122;-65
2021/12/12 07:23:11;;;;;;;7.28;1.10;;;;;;;8.08;83.21;95751.28;5114454;28;20076;-62
2021/12/12 07:25:39;;;;;;;2.95;1.20;;;;;;;8.20;82.71;95752.53;5114202;28;20027;-66
2021/12/12 07:28:05;;;;;;;3.05;1.10;;;;;;;8.34;82.73;95771.06;5114270;28;20478;-60
2021/12/12 07:30:33;;;;;;;8.02;1.00;;;;;;;8.51;82.49;95772.09;5114262;28;20126;-63
2021/12/12 07:33:00;;;;;;;6.47;0.95;;;;;;;8.64;81.40;95766.41;5114166;28;20027;-65
2021/12/12 07:35:26;;;;;;;5.70;1.05;;;;;;;8.74;81.79;95769.47;5114177;28;20366;-66
2021/12/12 07:37:53;;;;;;;5.85;1.23;;;;;;;8.82;81.17;95760.41;5114115;28;20107;-61
2021/12/12 07:40:20;;;;;;;2.92;0.95;;;;;;;8.98;81.26;95767.56;5113648;28;20072;-64
2021/12/12 07:42:47;;;;;;;7.75;1.40;;;;;;;9.07;81.07;95763.69;5113976;27;20058;-59
2021/12/12 07:45:15;;;;;;;4.15;1.23;;;;;;;9.06;81.48;95762.00;5113959;28;20016;-64
2021/12/12 07:47:41;;;;;;;7.50;1.70;;;;;;;9.09;81.27;95760.09;5114018;28;20023;-65
2021/12/12 07:50:13;;;;;;;5.95;1.27;;;;;;;9.18;81.27;95776.28;5113914;28;20043;-64
2021/12/12 07:52:39;;;;;;;10.10;1.77;;;;;;;9.25;81.30;95782.91;5112657;28;20435;-63
2021/12/12 07:55:06;;;;;;;11.23;1.50;;;;;;;9.35;80.97;95784.19;5113817;28;20031;-60
2021/12/12 07:57:32;;;;;;;5.82;1.42;;;;;;;9.33;80.64;95796.44;5113802;28;20020;-65
2021/12/12 08:00:00;;;;;;;12.70;2.03;;;;;;;9.28;81.48;95798.44;5113704;28;20020;-62
2021/12/12 08:02:26;;;;;;;6.55;1.90;;;;;;;9.29;81.46;95796.66;5113748;28;20061;-63
2021/12/12 08:04:54;;;;;;;7.75;2.20;;;;;;;9.22;81.32;95811.75;5113678;28;20027;-67
2021/12/12 08:07:22;;;;;;;8.85;1.40;;;;;;;9.19;81.95;95827.53;5113639;28;20027;-63
2021/12/12 08:09:50;;;;;;;7.53;1.90;;;;;;;9.28;82.07;95839.34;5113672;28;20038;-64
2021/12/12 08:12:18;;;;;;;4.30;1.58;;;;;;;9.84;80.46;95831.59;5113676;28;20031;-62
2021/12/12 08:14:46;;;;;;;6.78;1.70;;;;;;;10.97;75.77;95838.44;5113522;28;20028;-59
2021/12/12 08:17:12;;;;;;;4.72;1.27;;;;;;;11.08;74.15;95843.09;5113548;28;20075;-61
2021/12/12 08:19:39;;;;;;;3.80;1.20;;;;;;;11.08;73.83;95837.88;5113565;28;20016;-62
2021/12/12 08:22:09;;;;;;;5.85;1.25;;;;;;;11.05;74.27;95842.44;5113314;28;20045;-67
2021/12/12 08:24:37;;;;;;;6.45;1.65;;;;;;;11.42;74.31;95842.28;5113462;28;20450;-62
2021/12/12 08:27:06;;;;;;;7.32;1.17;;;;;;;12.72;69.92;95844.84;5113499;28;20393;-65
2021/12/12 08:29:32;;;;;;;9.13;1.88;;;;;;;13.06;67.91;95842.03;5113415;28;20034;-64
2021/12/12 08:31:58;;;;;;;7.95;1.15;;;;;;;13.97;65.04;95844.53;5113417;28;20023;-63
2021/12/12 08:34:26;;;;;;;6.57;1.48;;;;;;;14.51;63.36;95846.34;5113417;28;20032;-65
2021/12/12 08:36:54;;;;;;;4.95;1.60;;;;;;;14.47;64.58;95842.22;5113387;28;20016;-66
2021/12/12 08:39:22;;;;;;;6.43;1.30;;;;;;;14.49;62.29;95831.59;5113416;28;20366;-64
2021/12/12 08:41:50;;;;;;;3.92;1.10;;;;;;;14.58;61.64;95830.16;5113349;28;20039;-65
2021/12/12 08:44:17;;;;;;;8.73;2.08;;;;;;;14.42;62.08;95831.13;5113296;28;20019;-62
2021/12/12 08:46:46;;;;;;;7.00;1.52;;;;;;;14.22;62.05;95828.03;5113319;28;20023;-59
2021/12/12 08:49:14;;;;;;;8.13;1.60;;;;;;;14.18;63.69;95828.31;5113259;28;20054;-61
2021/12/12 08:51:51;;;;;;;4.07;1.15;;;;;;;14.03;58.36;95831.00;5113281;28;20093;-62
2021/12/12 08:54:25;;;;;;;3.35;1.15;;;;;;;14.35;61.02;95824.59;5116961;28;20016;-64
2021/12/12 08:57:20;;;;;;;6.90;1.17;;;;;;;14.94;61.48;95831.34;5117414;28;20381;-65
2021/12/12 08:59:48;;;;;;;11.68;2.03;;;;;;;14.45;61.95;95836.22;5117237;28;20023;-66
2021/12/12 09:02:17;;;;;;;4.75;1.70;;;;;;;14.05;61.68;95823.84;5117203;28;20417;-65
2021/12/12 09:04:59;;;;;;;4.38;1.23;;;;;;;13.70;62.57;95827.72;5116951;28;20085;-61
2021/12/12 09:07:38;;;;;;;5.43;1.40;;;;;;;13.40;64.09;95833.91;5117108;28;20058;-64
2021/12/12 09:10:17;;;;;;;4.60;1.60;;;;;;;13.17;63.88;95833.53;5117136;28;20020;-62
2021/12/12 09:12:54;;;;;;;4.15;1.48;;;;;;;12.92;66.59;95828.88;5117042;27;20028;-62
2021/12/12 09:15:33;;;;;;;6.53;1.65;;;;;;;12.71;65.77;95835.31;5117118;28;20027;-64
2021/12/12 09:18:06;;;;;;;5.75;1.55;;;;;;;12.45;66.86;95837.63;5116921;27;20031;-65
2021/12/12 09:20:46;;;;;;;4.57;1.45;;;;;;;12.29;64.38;95842.91;5116618;28;20044;-64
2021/12/12 09:23:20;;;;;;;7.50;1.23;;;;;;;12.08;64.63;95837.94;5116774;28;20031;-62
2021/12/12 09:25:56;;;;;;;7.20;1.48;;;;;;;11.97;66.33;95832.38;5116726;28;20042;-62
2021/12/12 09:28:35;;;;;;;8.27;1.60;;;;;;;11.99;65.49;95833.16;5116823;28;20084;-61
2021/12/12 09:31:11;;;;;;;7.30;2.17;;;;;;;11.93;65.84;95830.88;5116686;28;20058;-62
2021/12/12 09:34:09;;;;;;;5.60;1.50;;;;;;;11.98;67.11;95829.69;5116586;28;20034;-62
2021/12/12 09:36:42;;;;;;;5.47;1.70;;;;;;;11.88;66.13;95849.47;5105495;28;20046;-62
2021/12/12 09:39:10;;;;;;;6.38;1.83;;;;;;;11.82;67.02;95848.03;5116531;28;20028;-63
2021/12/12 09:41:50;;;;;;;6.00;1.73;;;;;;;11.81;68.48;95848.09;5116384;28;20032;-65
2021/12/12 09:44:37;;;;;;;3.22;1.20;;;;;;;11.82;66.86;95855.03;5116347;28;20546;-63
2021/12/12 09:48:03;;;;;;;8.93;1.67;;;;;;;11.88;68.18;95867.81;5116341;28;20053;-60
2021/12/12 09:53:29;;;;;;;6.50;1.90;;;;;;;12.10;69.02;95869.31;5116251;28;20510;-65
2021/12/12 09:56:06;;;;;;;7.97;1.50;;;;;;;12.18;67.37;95872.34;5116235;28;20027;-65
2021/12/12 09:58:37;;;;;;;5.90;1.30;;;;;;;12.13;67.23;95871.72;5116157;28;20043;-61
2021/12/12 10:01:24;;;;;;;4.93;1.75;;;;;;;12.10;67.36;95893.72;5116210;28;20047;-66
2021/12/12 10:04:02;;;;;;;5.40;1.55;;;;;;;11.88;66.11;95889.63;5115574;28;20027;-62
2021/12/12 10:07:04;;;;;;;5.93;1.50;;;;;;;11.78;66.52;95883.19;5116071;28;20028;-60
2021/12/12 10:09:43;;;;;;;6.45;1.67;;;;;;;11.73;66.96;95874.72;5115914;28;20027;-61
2021/12/12 10:12:19;;;;;;;6.35;1.70;;;;;;;11.64;68.10;95870.81;5115863;28;20023;-64
2021/12/12 10:14:59;;;;;;;5.32;1.92;;;;;;;11.65;68.37;95872.50;5115821;28;20024;-62
2021/12/12 10:17:37;;;;;;;11.35;1.95;;;;;;;11.62;68.93;95878.75;5115829;28;20040;-67
2021/12/12 10:20:28;;;;;;;7.28;1.65;;;;;;;11.66;67.63;95871.59;5115498;28;20047;-60
2021/12/12 10:23:12;;;;;;;;;;;;;;;11.65;68.35;95875.09;5116031;28;20061;-66
2021/12/12 10:25:52;;;;;;;9.65;2.20;;;;;;;11.50;69.66;95867.13;5115402;28;20010;-63
2021/12/12 10:28:43;;;;;;;9.20;2.40;;;;;;;11.57;69.35;95866.81;5115653;28;20469;-60
2021/12/12 10:31:21;;;;;;;6.40;1.98;;;;;;;11.56;69.51;95863.34;5115491;28;20027;-64
2021/12/12 10:34:04;;;;;;;6.18;2.20;;;;;;;11.59;69.14;95852.72;5115376;28;20020;-65
2021/12/12 10:36:37;;;;;;;8.55;2.10;;;;;;;11.68;68.81;95856.59;5115476;28;20103;-65
2021/12/12 10:39:19;;;;;;;8.52;1.58;;;;;;;11.74;67.58;95858.09;5115322;28;20114;-64
2021/12/12 10:41:53;;;;;;;7.32;2.08;;;;;;;11.76;69.27;95850.97;5115403;28;20038;-67
2021/12/12 10:44:21;;;;;;;7.22;2.00;;;;;;;11.82;68.04;95852.41;5115210;28;20385;-64
2021/12/12 10:46:49;;;;;;;5.03;1.45;;;;;;;11.81;66.19;95854.19;5115202;28;20031;-63
2021/12/12 10:49:27;;;;;;;9.38;2.03;;;;;;;11.81;66.78;95864.69;5115048;28;20081;-65
2021/12/12 10:52:11;;;;;;;5.97;1.45;;;;;;;11.86;66.92;95860.03;5115020;28;20390;-66
2021/12/12 10:54:53;;;;;;;7.30;1.65;;;;;;;11.96;66.82;95857.75;5115004;27;20059;-64
2021/12/12 10:57:24;;;;;;;8.88;2.17;;;;;;;11.98;66.11;95862.94;5115039;28;20023;-63
2021/12/12 10:59:59;;;;;;;12.70;2.10;;;;;;;12.03;66.78;95860.03;5114846;28;20019;-64
2021/12/12 11:02:35;;;;;;;7.65;1.90;;;;;;;12.06;66.39;95852.84;5114824;28;20122;-65
2021/12/12 11:05:26;;;;;;;10.48;1.70;;;;;;;12.15;66.34;95841.03;5114817;28;20023;-66
2021/12/12 11:08:20;;;;;;;10.90;2.03;;;;;;;12.22;67.23;95847.63;5114642;28;20020;-66
2021/12/12 11:10:47;;;;;;;9.77;2.05;;;;;;;12.33;66.86;95849.66;5114735;28;20491;-63
2021/12/12 11:13:24;;;;;;;4.55;1.67;;;;;;;12.51;66.88;95862.66;5113295;28;20024;-65
2021/12/12 11:15:56;;;;;;;12.23;2.08;;;;;;;12.54;65.72;95861.63;5113707;28;20035;-66
2021/12/12 11:18:34;;;;;;;5.95;1.50;;;;;;;12.55;66.41;95866.78;5114547;28;20027;-64
2021/12/12 11:21:03;;;;;;;7.43;1.70;;;;;;;12.48;68.10;95875.94;5114153;28;20082;-59
2021/12/12 11:23:35;;;;;;;4.97;2.10;;;;;;;12.45;67.75;95865.63;5114373;28;20051;-62
2021/12/12 11:26:11;;;;;;;7.63;2.33;;;;;;;12.44;69.08;95866.56;5114257;28;20027;-62
2021/12/12 11:28:43;;;;;;;7.68;1.88;;;;;;;12.47;68.95;95863.78;5114421;27;20457;-63
2021/12/12 11:31:21;;;;;;;3.85;1.30;;;;;;;12.36;67.43;95857.34;5114253;28;20067;-65
2021/12/12 11:33:50;;;;;;;7.40;1.80;;;;;;;12.31;67.11;95863.78;5114215;28;20055;-66
2021/12/12 11:36:21;;;;;;;7.20;1.63;;;;;;;12.31;67.93;95858.56;5114167;28;20032;-65
2021/12/12 11:39:10;;;;;;;9.57;2.00;;;;;;;12.29;69.08;95874.38;5114188;28;20055;-61
2021/12/12 11:41:53;;;;;;;8.48;2.10;;;;;;;12.25;69.08;95868.44;5114246;28;20023;-63
2021/12/12 11:44:30;;;;;;;6.55;1.70;;;;;;;12.30;69.42;95862.09;5113974;28;20035;-65
2021/12/12 11:47:03;;;;;;;5.72;2.70;;;;;;;12.28;69.22;95861.34;5114014;28;20043;-66
2021/12/12 11:50:06;;;;;;;5.55;1.73;;;;;;;12.27;69.79;95878.84;5114044;28;20481;-62
2021/12/12 11:52:58;;;;;;;10.57;2.25;;;;;;;12.28;69.70;95867.41;5109352;28;20088;-61
2021/12/12 11:55:53;;;;;;;5.70;1.73;;;;;;;12.18;69.11;95866.22;5077044;28;20046;-65
2021/12/12 11:58:48;;;;;;;5.07;1.33;;;;;;;12.15;69.50;95859.41;5096341;28;20077;-62
2021/12/12 12:01:33;;;;;;;9.40;1.60;;;;;;;12.02;69.12;95859.19;5113794;28;20477;-63
2021/12/12 12:04:11;;;;;;;3.92;1.20;;;;;;;12.02;69.38;95861.81;5113757;28;20473;-63
2021/12/12 12:06:54;;;;;;;5.25;1.50;;;;;;;12.08;70.26;95858.03;5113746;28;20020;-62
2021/12/12 12:09:32;;;;;;;3.95;1.35;;;;;;;12.28;69.72;95853.47;5113621;28;20393;-66
2021/12/12 12:12:14;;;;;;;5.43;1.70;;;;;;;12.35;68.74;95849.56;5113602;28;20027;-66
2021/12/12 12:15:13;;;;;;;8.95;1.30;;;;;;;12.40;68.33;95844.06;5113780;28;20107;-67
2021/12/12 12:17:48;;;;;;;9.35;1.45;;;;;;;12.36;67.10;95846.00;5113769;28;20032;-65
2021/12/12 12:20:29;;;;;;;6.07;1.50;;;;;;;12.23;68.06;95845.88;5113229;28;20028;-63
2021/12/12 12:23:06;;;;;;;5.80;1.45;;;;;;;12.21;69.11;95835.47;5113543;28;20389;-60